createdAt,value
2023-03-13T00:01:26.292Z,5.74
2023-03-13T00:04:29.020Z,5.72
2023-03-13T00:07:32.430Z,5.71
2023-03-13T00:10:37.259Z,5.82
2023-03-13T00:13:39.610Z,5.81
2023-03-13T00:16:41.654Z,5.93
2023-03-13T00:19:44.035Z,5.90
2023-03-13T00:22:47.578Z,6.00
2023-03-13T00:25:55.671Z,5.94
2023-03-13T00:28:57.773Z,5.89
2023-03-13T00:32:00.658Z,5.98
2023-03-13T00:35:03.466Z,6.11
2023-03-13T00:38:06.988Z,6.06
2023-03-13T00:41:11.255Z,5.99
2023-03-13T00:44:13.075Z,5.90
2023-03-13T00:47:14.933Z,5.90
2023-03-13T00:50:17.091Z,5.86
2023-03-13T00:53:21.357Z,5.84
2023-03-13T00:56:24.437Z,5.81
2023-03-13T00:59:26.189Z,5.69
2023-03-13T01:02:28.426Z,5.66
2023-03-13T01:05:30.253Z,5.52
2023-03-13T01:08:34.089Z,5.54
2023-03-13T01:11:39.102Z,5.53
2023-03-13T01:14:41.321Z,5.59
2023-03-13T01:17:44.215Z,5.56
2023-03-13T01:20:46.259Z,5.46
2023-03-13T01:23:51.410Z,5.35
2023-03-13T01:26:53.194Z,5.37
2023-03-13T01:29:56.170Z,5.35
2023-03-13T01:32:58.389Z,5.12
2023-03-13T01:36:02.646Z,5.13
2023-03-13T01:39:06.776Z,5.10
2023-03-13T01:42:09.081Z,4.89
2023-03-13T01:45:48.469Z,4.77
2023-03-13T01:48:55.119Z,4.70
2023-03-13T01:52:00.168Z,4.68
2023-03-13T01:55:09.502Z,4.52
2023-03-13T01:58:11.135Z,4.45
2023-03-13T02:01:14.611Z,4.48
2023-03-13T02:04:20.490Z,4.43
2023-03-13T02:07:28.264Z,4.44
2023-03-13T02:10:34.223Z,4.35
2023-03-13T02:13:36.079Z,4.27
2023-03-13T02:16:39.626Z,4.24
2023-03-13T02:19:45.269Z,4.17
2023-03-13T02:22:54.792Z,4.16
2023-03-13T02:25:58.489Z,4.12
2023-03-13T02:29:00.830Z,3.89
2023-03-13T02:32:02.842Z,3.62
2023-03-13T02:35:08.981Z,3.73
2023-03-13T02:38:14.488Z,3.70
2023-03-13T02:41:19.148Z,3.74
2023-03-13T02:44:21.374Z,3.64
2023-03-13T02:47:25.530Z,3.63
2023-03-13T02:50:27.953Z,3.38
2023-03-13T02:53:30.534Z,3.37
2023-03-13T02:56:36.625Z,3.39
2023-03-13T02:59:38.560Z,3.33
2023-03-13T03:02:40.499Z,3.34
2023-03-13T03:05:43.043Z,3.39
2023-03-13T03:08:45.595Z,3.40
2023-03-13T03:11:49.178Z,3.26
2023-03-13T03:14:51.251Z,3.08
2023-03-13T03:17:53.266Z,2.99
2023-03-13T03:20:55.094Z,3.12
2023-03-13T03:23:58.127Z,2.98
2023-03-13T03:27:01.495Z,3.09
2023-03-13T03:30:04.299Z,3.02
2023-03-13T03:33:06.387Z,3.02
2023-03-13T03:36:11.502Z,2.89
2023-03-13T03:39:13.563Z,2.84
2023-03-13T03:42:16.893Z,2.68
2023-03-13T03:45:18.689Z,2.75
2023-03-13T03:48:20.616Z,2.80
2023-03-13T03:51:23.566Z,2.80
2023-03-13T03:54:25.923Z,2.72
2023-03-13T03:57:30.809Z,2.77
2023-03-13T04:00:32.909Z,2.75
2023-03-13T04:03:35.204Z,2.82
2023-03-13T04:06:37.425Z,2.68
2023-03-13T04:09:39.258Z,2.42
2023-03-13T04:12:43.192Z,2.33
2023-03-13T04:15:45.292Z,2.29
2023-03-13T04:18:48.651Z,2.34
2023-03-13T04:21:50.475Z,2.37
2023-03-13T04:24:52.655Z,2.23
2023-03-13T04:27:56.073Z,2.21
2023-03-13T04:30:58.161Z,2.29
2023-03-13T04:34:00.569Z,2.33
2023-03-13T04:37:02.920Z,2.31
2023-03-13T04:40:06.192Z,2.36
2023-03-13T04:43:09.669Z,2.18
2023-03-13T04:46:11.495Z,2.28
2023-03-13T04:49:13.442Z,2.33
2023-03-13T04:52:16.545Z,2.34
2023-03-13T04:55:18.594Z,2.39
2023-03-13T04:58:22.119Z,2.25
2023-03-13T05:01:24.819Z,2.23
2023-03-13T05:04:28.189Z,2.17
2023-03-13T05:07:30.145Z,2.13
2023-03-13T05:10:32.206Z,2.10
2023-03-13T05:13:35.496Z,2.14
2023-03-13T05:16:37.255Z,2.10
2023-03-13T05:19:39.045Z,2.20
2023-03-13T05:22:40.810Z,2.25
2023-03-13T05:25:42.797Z,2.26
2023-03-13T05:28:46.094Z,2.32
2023-03-13T05:31:48.903Z,2.32
2023-03-13T05:34:50.718Z,2.27
2023-03-13T05:37:52.649Z,2.25
2023-03-13T05:40:54.552Z,2.22
2023-03-13T05:43:58.008Z,2.28
2023-03-13T05:47:02.972Z,2.31
2023-03-13T05:50:07.742Z,2.35
2023-03-13T05:53:09.988Z,2.38
2023-03-13T05:56:11.995Z,2.43
2023-03-13T05:59:15.368Z,2.33
2023-03-13T06:02:17.485Z,2.35
2023-03-13T06:05:19.382Z,2.28
2023-03-13T06:08:21.854Z,2.36
2023-03-13T06:11:23.699Z,2.36
2023-03-13T06:14:27.868Z,2.38
2023-03-13T06:17:29.657Z,2.40
2023-03-13T06:20:31.519Z,2.38
2023-03-13T06:23:35.236Z,2.42
2023-03-13T06:26:40.828Z,2.50
2023-03-13T06:29:44.203Z,2.48
2023-03-13T06:32:46.209Z,2.55
2023-03-13T06:35:56.328Z,2.60
2023-03-13T06:38:59.030Z,2.65
2023-03-13T06:42:00.933Z,2.68
2023-03-13T06:45:04.543Z,2.80
2023-03-13T06:48:06.807Z,2.82
2023-03-13T06:51:11.834Z,2.88
2023-03-13T06:54:13.796Z,2.96
2023-03-13T06:57:15.598Z,2.96
2023-03-13T07:00:20.144Z,2.99
2023-03-13T07:03:22.215Z,3.03
2023-03-13T07:06:24.755Z,3.09
2023-03-13T07:09:26.553Z,3.15
2023-03-13T07:12:28.770Z,3.24
2023-03-13T07:15:32.345Z,3.30
2023-03-13T07:18:35.221Z,3.41
2023-03-13T07:21:37.284Z,3.48
2023-03-13T07:24:39.785Z,3.51
2023-03-13T07:27:41.950Z,3.56
2023-03-13T07:30:45.390Z,3.69
2023-03-13T07:33:47.608Z,3.84
2023-03-13T07:36:49.388Z,3.94
2023-03-13T07:39:51.558Z,4.07
2023-03-13T07:42:53.880Z,4.16
2023-03-13T07:46:00.835Z,4.21
2023-03-13T07:49:03.072Z,4.36
2023-03-13T07:52:05.369Z,4.44
2023-03-13T07:55:08.144Z,4.51
2023-03-13T07:58:10.094Z,4.56
2023-03-13T08:01:15.907Z,4.62
2023-03-13T08:04:20.235Z,4.75
2023-03-13T08:07:22.888Z,4.86
2023-03-13T08:10:24.824Z,4.96
2023-03-13T08:13:26.739Z,4.99
2023-03-13T08:16:32.428Z,5.06
2023-03-13T08:19:34.502Z,5.15
2023-03-13T08:22:36.618Z,5.26
2023-03-13T08:25:38.681Z,5.31
2023-03-13T08:28:41.769Z,5.39
2023-03-13T08:31:46.823Z,5.50
2023-03-13T08:34:48.623Z,5.59
2023-03-13T08:37:52.056Z,5.67
2023-03-13T08:40:56.940Z,5.69
2023-03-13T08:43:58.930Z,5.81
2023-03-13T08:47:02.290Z,6.00
2023-03-13T08:50:04.902Z,6.11
2023-03-13T08:53:07.169Z,6.05
2023-03-13T08:56:10.039Z,6.00
2023-03-13T08:59:12.379Z,5.99
2023-03-13T09:02:18.913Z,5.98
2023-03-13T09:05:21.465Z,5.99
2023-03-13T09:08:24.215Z,6.01
2023-03-13T09:11:26.516Z,6.08
2023-03-13T09:14:28.475Z,6.18
2023-03-13T09:17:32.150Z,6.25
2023-03-13T09:20:33.946Z,6.32
2023-03-13T09:23:36.127Z,6.34
2023-03-13T09:26:38.700Z,6.34
2023-03-13T09:29:40.861Z,6.45
2023-03-13T09:32:44.132Z,6.46
2023-03-13T09:35:46.281Z,6.53
2023-03-13T09:38:48.307Z,6.70
2023-03-13T09:41:58.427Z,6.59
2023-03-13T09:45:06.856Z,6.64
2023-03-13T09:48:28.487Z,6.69
2023-03-13T09:51:35.056Z,6.77
2023-03-13T09:54:41.264Z,6.82
2023-03-13T09:57:49.615Z,6.87
2023-03-13T10:00:55.356Z,6.90
2023-03-13T10:04:08.598Z,6.93
2023-03-13T10:07:12.259Z,6.99
2023-03-13T10:10:15.373Z,7.07
2023-03-13T10:13:22.794Z,7.10
2023-03-13T10:16:29.255Z,7.12
2023-03-13T10:19:36.277Z,7.19
2023-03-13T10:22:39.148Z,7.25
2023-03-13T10:25:41.915Z,7.31
2023-03-13T10:28:44.063Z,7.35
2023-03-13T10:31:54.644Z,7.39
2023-03-13T10:34:59.514Z,7.44
2023-03-13T10:38:06.026Z,7.52
2023-03-13T10:41:18.874Z,7.54
2023-03-13T10:44:23.582Z,7.58
2023-03-13T10:47:32.626Z,7.67
2023-03-13T10:50:36.500Z,7.72
2023-03-13T10:53:38.744Z,7.82
2023-03-13T10:56:40.756Z,7.89
2023-03-13T10:59:46.464Z,8.10
2023-03-13T11:02:49.306Z,8.17
2023-03-13T11:05:59.956Z,8.38
2023-03-13T11:09:18.366Z,8.54
2023-03-13T11:12:21.055Z,8.68
2023-03-13T11:15:29.407Z,8.74
2023-03-13T11:18:41.367Z,8.85
2023-03-13T11:21:58.503Z,8.95
2023-03-13T11:25:10.373Z,9.05
2023-03-13T11:28:23.257Z,9.19
2023-03-13T11:31:29.740Z,9.47
2023-03-13T11:34:37.598Z,9.60
2023-03-13T11:37:44.287Z,9.74
2023-03-13T11:40:59.051Z,9.90
2023-03-13T11:44:14.698Z,9.94
2023-03-13T11:47:33.105Z,10.05
2023-03-13T11:50:40.624Z,10.22
2023-03-13T11:54:05.282Z,10.32
2023-03-13T11:57:13.525Z,10.48
2023-03-13T12:00:29.083Z,10.50
2023-03-13T12:03:39.954Z,10.63
2023-03-13T12:06:47.256Z,10.68
2023-03-13T12:09:57.435Z,10.85
2023-03-13T12:13:05.993Z,10.82
2023-03-13T12:16:13.628Z,10.77
2023-03-13T12:19:22.257Z,10.71
2023-03-13T12:22:31.717Z,10.70
2023-03-13T12:25:42.346Z,10.86
2023-03-13T12:28:49.314Z,10.98
2023-03-13T12:31:57.986Z,10.99
2023-03-13T12:35:07.443Z,11.08
2023-03-13T12:38:16.377Z,11.05
2023-03-13T12:41:24.491Z,11.23
2023-03-13T12:44:27.026Z,11.42
2023-03-13T12:47:32.545Z,11.59
2023-03-13T12:50:43.508Z,11.54
2023-03-13T12:54:12.632Z,11.73
2023-03-13T12:57:38.162Z,11.91
2023-03-13T13:00:44.477Z,12.02
2023-03-13T13:03:53.283Z,12.20
2023-03-13T13:06:59.813Z,12.31
2023-03-13T13:10:18.389Z,12.39
2023-03-13T13:13:29.736Z,12.53
2023-03-13T13:16:32.448Z,12.57
2023-03-13T13:19:45.762Z,12.57
2023-03-13T13:22:52.086Z,12.56
2023-03-13T13:26:15.922Z,12.80
2023-03-13T13:29:51.686Z,12.81
2023-03-13T13:32:56.194Z,12.99
2023-03-13T13:36:39.580Z,13.01
2023-03-13T13:39:43.792Z,13.01
2023-03-13T13:42:51.345Z,12.99
2023-03-13T13:46:02.728Z,12.97
2023-03-13T13:49:16.513Z,13.10
2023-03-13T13:52:35.050Z,13.12
2023-03-13T13:55:44.266Z,13.05
2023-03-13T13:58:47.233Z,13.03
2023-03-13T14:01:51.093Z,13.02
2023-03-13T14:05:09.562Z,13.06
2023-03-13T14:08:20.567Z,12.96
2023-03-13T14:11:28.021Z,12.91
2023-03-13T14:14:29.817Z,12.96
2023-03-13T14:17:32.050Z,12.96
2023-03-13T14:20:37.730Z,12.99
2023-03-13T14:23:42.438Z,13.03
2023-03-13T14:26:45.120Z,13.16
2023-03-13T14:30:00.724Z,13.23
2023-03-13T14:33:03.152Z,13.35
2023-03-13T14:36:07.825Z,13.42
2023-03-13T14:39:18.868Z,13.46
2023-03-13T14:42:21.166Z,13.52
2023-03-13T14:45:30.253Z,13.57
2023-03-13T14:48:33.695Z,13.61
2023-03-13T14:51:40.112Z,13.55
2023-03-13T14:54:53.536Z,13.60
2023-03-13T14:57:56.260Z,13.63
2023-03-13T15:00:58.305Z,13.70
2023-03-13T15:04:00.752Z,13.84
2023-03-13T15:07:08.257Z,13.78
2023-03-13T15:10:21.088Z,13.76
2023-03-13T15:13:34.347Z,13.64
2023-03-13T15:16:36.338Z,13.61
2023-03-13T15:19:38.641Z,13.53
2023-03-13T15:22:44.557Z,13.49
2023-03-13T15:25:47.261Z,13.49
2023-03-13T15:28:49.356Z,13.47
2023-03-13T15:31:51.864Z,13.40
2023-03-13T15:34:55.287Z,13.45
2023-03-13T15:38:00.734Z,13.65
2023-03-13T15:41:02.490Z,13.70
2023-03-13T15:44:04.482Z,13.82
2023-03-13T15:47:09.300Z,13.93
2023-03-13T15:50:13.039Z,13.97
2023-03-13T15:53:20.398Z,14.11
2023-03-13T15:56:23.721Z,14.08
2023-03-13T15:59:25.749Z,13.86
2023-03-13T16:02:27.632Z,13.70
2023-03-13T16:05:29.485Z,13.56
2023-03-13T16:08:36.130Z,13.37
2023-03-13T16:11:39.099Z,13.20
2023-03-13T16:14:41.834Z,13.10
2023-03-13T16:17:43.660Z,12.99
2023-03-13T16:21:16.099Z,12.86
2023-03-13T16:24:19.675Z,12.73
2023-03-13T16:27:21.544Z,12.66
2023-03-13T16:30:25.675Z,12.57
2023-03-13T16:33:27.668Z,12.49
2023-03-13T16:36:31.646Z,12.41
2023-03-13T16:39:35.644Z,12.29
2023-03-13T16:42:37.462Z,12.27
2023-03-13T16:45:39.372Z,12.19
2023-03-13T16:48:41.686Z,12.18
2023-03-13T16:51:44.029Z,12.05
2023-03-13T16:54:48.081Z,11.95
2023-03-13T16:57:50.456Z,11.78
2023-03-13T17:01:04.743Z,11.76
2023-03-13T17:04:07.590Z,11.64
2023-03-13T17:07:18.176Z,11.54
2023-03-13T17:10:23.944Z,11.39
2023-03-13T17:13:25.959Z,11.33
2023-03-13T17:16:32.253Z,11.28
2023-03-13T17:19:34.028Z,11.22
2023-03-13T17:22:37.125Z,11.11
2023-03-13T17:25:40.514Z,11.03
2023-03-13T17:28:43.157Z,10.97
2023-03-13T17:31:45.724Z,10.91
2023-03-13T17:34:47.641Z,10.76
2023-03-13T17:37:50.861Z,10.72
2023-03-13T17:40:54.037Z,10.71
2023-03-13T17:43:56.128Z,10.51
2023-03-13T17:46:58.671Z,10.51
2023-03-13T17:50:01.949Z,10.42
2023-03-13T17:53:05.253Z,10.21
2023-03-13T17:56:18.625Z,9.79
2023-03-13T17:59:20.917Z,9.77
2023-03-13T18:02:23.212Z,9.85
2023-03-13T18:05:26.138Z,9.77
2023-03-13T18:08:28.731Z,9.73
2023-03-13T18:11:32.571Z,9.64
2023-03-13T18:14:35.384Z,9.37
2023-03-13T18:17:38.295Z,9.37
2023-03-13T18:20:42.081Z,9.11
2023-03-13T18:23:45.173Z,8.95
2023-03-13T18:26:50.046Z,9.01
2023-03-13T18:29:54.245Z,8.99
2023-03-13T18:32:57.695Z,8.88
2023-03-13T18:36:00.939Z,8.87
2023-03-13T18:39:05.914Z,8.89
2023-03-13T18:42:10.812Z,8.95
2023-03-13T18:45:36.790Z,8.88
2023-03-13T18:48:39.679Z,8.70
2023-03-13T18:51:43.141Z,8.70
2023-03-13T18:54:46.613Z,8.66
2023-03-13T18:57:51.197Z,8.66
2023-03-13T19:00:54.745Z,8.63
2023-03-13T19:04:01.624Z,8.66
2023-03-13T19:07:12.262Z,8.71
2023-03-13T19:10:21.226Z,8.64
2023-03-13T19:13:26.627Z,8.64
2023-03-13T19:16:31.943Z,8.68
2023-03-13T19:19:35.881Z,8.71
2023-03-13T19:22:38.581Z,8.73
2023-03-13T19:25:41.316Z,8.72
2023-03-13T19:28:49.751Z,8.76
2023-03-13T19:31:52.685Z,8.75
2023-03-13T19:34:55.472Z,8.75
2023-03-13T19:37:59.495Z,8.75
2023-03-13T19:41:02.556Z,8.73
2023-03-13T19:44:07.423Z,8.71
2023-03-13T19:47:13.756Z,8.66
2023-03-13T19:50:20.753Z,8.64
2023-03-13T19:53:34.738Z,8.59
2023-03-13T19:56:38.546Z,8.58
2023-03-13T19:59:43.481Z,8.51
2023-03-13T20:02:46.490Z,8.41
2023-03-13T20:05:50.387Z,8.32
2023-03-13T20:08:56.247Z,8.20
2023-03-13T20:12:00.273Z,7.98
2023-03-13T20:15:05.667Z,8.01
2023-03-13T20:18:09.620Z,7.91
2023-03-13T20:21:15.698Z,7.74
2023-03-13T20:24:19.294Z,7.68
2023-03-13T20:27:22.466Z,7.68
2023-03-13T20:30:27.780Z,7.74
2023-03-13T20:33:31.001Z,7.68
2023-03-13T20:36:34.495Z,7.71
2023-03-13T20:39:37.697Z,7.72
2023-03-13T20:42:40.901Z,7.66
2023-03-13T20:45:50.189Z,7.35
2023-03-13T20:48:52.712Z,7.28
2023-03-13T20:51:57.065Z,7.34
2023-03-13T20:54:59.634Z,7.19
2023-03-13T20:58:04.184Z,7.27
2023-03-13T21:01:09.389Z,7.11
2023-03-13T21:04:13.100Z,7.07
2023-03-13T21:07:15.908Z,6.97
2023-03-13T21:10:19.140Z,6.81
2023-03-13T21:13:23.787Z,6.89
2023-03-13T21:16:28.461Z,6.81
2023-03-13T21:19:31.902Z,6.69
2023-03-13T21:22:34.419Z,6.73
2023-03-13T21:25:37.781Z,6.68
2023-03-13T21:28:40.394Z,6.46
2023-03-13T21:31:43.702Z,6.09
2023-03-13T21:34:45.546Z,6.14
2023-03-13T21:37:47.758Z,6.23
2023-03-13T21:40:50.001Z,6.23
2023-03-13T21:43:51.856Z,6.12
2023-03-13T21:46:55.206Z,6.32
2023-03-13T21:49:57.610Z,6.30
2023-03-13T21:52:59.672Z,6.28
2023-03-13T21:56:01.731Z,6.32
2023-03-13T21:59:03.580Z,6.35
2023-03-13T22:02:10.388Z,6.24
2023-03-13T22:05:13.612Z,6.36
2023-03-13T22:08:15.992Z,6.21
2023-03-13T22:11:18.596Z,6.17
2023-03-13T22:14:20.852Z,5.96
2023-03-13T22:17:24.125Z,6.00
2023-03-13T22:20:25.920Z,5.98
2023-03-13T22:23:27.733Z,6.00
2023-03-13T22:26:30.512Z,5.73
2023-03-13T22:29:32.733Z,5.76
2023-03-13T22:32:36.628Z,5.84
2023-03-13T22:35:38.473Z,5.88
2023-03-13T22:38:41.522Z,5.84
2023-03-13T22:41:44.007Z,5.71
2023-03-13T22:44:46.041Z,5.68
2023-03-13T22:47:49.758Z,5.65
2023-03-13T22:50:59.316Z,5.49
2023-03-13T22:54:02.918Z,5.51
2023-03-13T22:57:05.038Z,5.33
2023-03-13T23:00:08.126Z,5.08
2023-03-13T23:03:11.529Z,5.11
2023-03-13T23:06:16.180Z,5.23
2023-03-13T23:09:17.947Z,5.24
2023-03-13T23:12:20.517Z,4.93
2023-03-13T23:15:22.620Z,4.89
2023-03-13T23:18:28.402Z,5.06
2023-03-13T23:21:30.289Z,5.18
2023-03-13T23:24:32.212Z,4.86
2023-03-13T23:27:34.667Z,4.71
2023-03-13T23:30:37.123Z,4.80
2023-03-13T23:33:40.503Z,4.82
2023-03-13T23:36:42.502Z,4.58
2023-03-13T23:39:46.395Z,4.38
2023-03-13T23:42:49.674Z,4.38
2023-03-13T23:45:51.995Z,4.55
2023-03-13T23:48:57.388Z,4.79
2023-03-13T23:51:59.579Z,5.01
2023-03-13T23:55:01.789Z,5.03
2023-03-13T23:58:03.658Z,5.07
